createdAt,value
2023-02-19T00:02:02.849Z,102091.53
2023-02-19T00:04:31.549Z,102085.47
2023-02-19T00:07:01.628Z,102086.31
2023-02-19T00:09:30.435Z,102085.47
2023-02-19T00:11:58.855Z,102100.50
2023-02-19T00:14:27.598Z,102112.88
2023-02-19T00:16:56.274Z,102098.84
2023-02-19T00:19:24.660Z,102103.25
2023-02-19T00:21:54.408Z,102102.53
2023-02-19T00:24:24.276Z,102114.81
2023-02-19T00:26:52.775Z,102113.97
2023-02-19T00:29:23.204Z,102114.94
2023-02-19T00:31:51.744Z,102121.06
2023-02-19T00:34:20.318Z,102122.91
2023-02-19T00:36:48.896Z,102123.97
2023-02-19T00:39:19.004Z,102114.28
2023-02-19T00:41:49.316Z,102115.16
2023-02-19T00:44:18.167Z,102112.59
2023-02-19T00:46:48.564Z,102102.06
2023-02-19T00:49:22.516Z,102123.13
2023-02-19T00:51:52.957Z,102131.03
2023-02-19T00:54:23.140Z,102142.44
2023-02-19T00:56:53.430Z,102142.53
2023-02-19T00:59:21.948Z,102150.34
2023-02-19T01:01:51.219Z,102153.91
2023-02-19T01:04:19.990Z,102150.47
2023-02-19T01:06:49.159Z,102149.53
2023-02-19T01:09:17.936Z,102150.53
2023-02-19T01:11:46.299Z,102144.34
2023-02-19T01:14:17.280Z,102141.78
2023-02-19T01:16:45.866Z,102136.50
2023-02-19T01:19:14.473Z,102141.94
2023-02-19T01:21:43.394Z,102133.44
2023-02-19T01:24:12.162Z,102145.28
2023-02-19T01:26:40.625Z,102149.09
2023-02-19T01:29:08.990Z,102133.44
2023-02-19T01:31:42.512Z,102123.03
2023-02-19T01:34:13.267Z,102129.31
2023-02-19T01:36:42.155Z,102133.00
2023-02-19T01:39:12.314Z,102128.69
2023-02-19T01:41:42.996Z,102137.53
2023-02-19T01:44:44.624Z,102147.19
2023-02-19T01:47:18.068Z,102155.19
2023-02-19T01:49:50.705Z,102171.00
2023-02-19T01:52:25.862Z,102160.38
2023-02-19T01:54:56.292Z,102161.28
2023-02-19T01:57:28.208Z,102149.00
2023-02-19T02:00:00.046Z,102156.59
2023-02-19T02:02:30.104Z,102166.47
2023-02-19T02:05:01.545Z,102155.28
2023-02-19T02:07:47.241Z,102166.72
2023-02-19T02:10:21.882Z,102158.03
2023-02-19T02:12:50.770Z,102152.75
2023-02-19T02:15:20.461Z,102146.75
2023-02-19T02:17:55.306Z,102134.72
2023-02-19T02:20:37.967Z,102135.69
2023-02-19T02:23:17.928Z,102140.31
2023-02-19T02:26:07.434Z,102155.31
2023-02-19T02:28:59.096Z,102170.34
2023-02-19T02:31:35.759Z,102188.00
2023-02-19T02:34:09.127Z,102186.31
2023-02-19T02:36:40.156Z,102185.56
2023-02-19T02:39:14.501Z,102176.81
2023-02-19T02:41:45.270Z,102191.94
2023-02-19T02:44:14.776Z,102197.28
2023-02-19T02:46:47.168Z,102197.44
2023-02-19T02:49:22.229Z,102201.88
2023-02-19T02:51:56.167Z,102202.81
2023-02-19T02:54:46.980Z,102205.53
2023-02-19T02:57:18.587Z,102208.16
2023-02-19T02:59:50.932Z,102216.94
2023-02-19T03:02:24.129Z,102221.28
2023-02-19T03:05:16.649Z,102222.13
2023-02-19T03:07:49.626Z,102230.78
2023-02-19T03:10:21.949Z,102218.66
2023-02-19T03:13:12.970Z,102230.09
2023-02-19T03:16:09.188Z,102215.00
2023-02-19T03:19:01.623Z,102227.47
2023-02-19T03:21:30.740Z,102224.09
2023-02-19T03:24:17.242Z,102224.94
2023-02-19T03:26:54.412Z,102218.19
2023-02-19T03:29:26.413Z,102227.09
2023-02-19T03:31:59.043Z,102235.88
2023-02-19T03:34:35.282Z,102237.75
2023-02-19T03:37:12.602Z,102237.84
2023-02-19T03:39:45.794Z,102238.84
2023-02-19T03:42:22.948Z,102237.16
2023-02-19T03:45:08.982Z,102232.09
2023-02-19T03:47:45.085Z,102240.88
2023-02-19T03:50:20.281Z,102233.78
2023-02-19T03:52:59.844Z,102229.38
2023-02-19T03:55:36.397Z,102227.75
2023-02-19T03:58:11.854Z,102221.69
2023-02-19T04:00:46.505Z,102227.09
2023-02-19T04:03:22.527Z,102234.19
2023-02-19T04:05:59.781Z,102252.53
2023-02-19T04:08:30.028Z,102256.00
2023-02-19T04:11:01.360Z,102255.84
2023-02-19T04:13:34.283Z,102259.38
2023-02-19T04:16:08.287Z,102273.44
2023-02-19T04:18:42.570Z,102268.19
2023-02-19T04:21:13.135Z,102278.69
2023-02-19T04:23:44.839Z,102271.56
2023-02-19T04:26:15.252Z,102270.72
2023-02-19T04:28:44.847Z,102277.66
2023-02-19T04:31:13.825Z,102271.41
2023-02-19T04:33:42.370Z,102274.91
2023-02-19T04:36:13.244Z,102274.03
2023-02-19T04:38:41.768Z,102266.94
2023-02-19T04:41:11.352Z,102281.75
2023-02-19T04:43:40.180Z,102292.97
2023-02-19T04:46:08.560Z,102284.13
2023-02-19T04:48:38.196Z,102288.34
2023-02-19T04:51:07.955Z,102279.44
2023-02-19T04:53:38.799Z,102285.63
2023-02-19T04:56:09.510Z,102296.13
2023-02-19T04:58:38.717Z,102294.19
2023-02-19T05:01:07.831Z,102292.34
2023-02-19T05:03:36.618Z,102295.81
2023-02-19T05:06:06.322Z,102296.66
2023-02-19T05:08:37.613Z,102295.63
2023-02-19T05:11:08.600Z,102279.88
2023-02-19T05:13:38.575Z,102281.59
2023-02-19T05:16:11.097Z,102266.63
2023-02-19T05:18:39.517Z,102258.75
2023-02-19T05:21:08.404Z,102269.16
2023-02-19T05:23:38.904Z,102266.63
2023-02-19T05:26:08.619Z,102272.84
2023-02-19T05:28:37.129Z,102272.06
2023-02-19T05:31:09.156Z,102281.72
2023-02-19T05:33:38.449Z,102274.81
2023-02-19T05:36:10.620Z,102266.91
2023-02-19T05:38:40.932Z,102247.72
2023-02-19T05:41:12.435Z,102227.50
2023-02-19T05:43:42.052Z,102237.34
2023-02-19T05:46:12.236Z,102239.97
2023-02-19T05:48:41.094Z,102239.00
2023-02-19T05:51:12.094Z,102248.69
2023-02-19T05:53:43.091Z,102240.88
2023-02-19T05:56:27.952Z,102248.84
2023-02-19T05:58:57.038Z,102247.84
2023-02-19T06:01:27.552Z,102242.66
2023-02-19T06:03:57.578Z,102242.66
2023-02-19T06:06:27.796Z,102213.84
2023-02-19T06:08:57.961Z,102207.75
2023-02-19T06:11:26.575Z,102210.53
2023-02-19T06:13:55.590Z,102219.22
2023-02-19T06:16:24.089Z,102219.19
2023-02-19T06:18:52.724Z,102202.47
2023-02-19T06:21:21.726Z,102208.53
2023-02-19T06:23:50.257Z,102213.66
2023-02-19T06:26:22.671Z,102211.13
2023-02-19T06:28:53.001Z,102205.97
2023-02-19T06:31:24.475Z,102205.13
2023-02-19T06:33:53.138Z,102200.81
2023-02-19T06:36:23.572Z,102207.00
2023-02-19T06:38:53.178Z,102194.84
2023-02-19T06:41:23.351Z,102196.47
2023-02-19T06:43:51.937Z,102197.59
2023-02-19T06:46:20.544Z,102197.59
2023-02-19T06:48:48.917Z,102189.59
2023-02-19T06:51:19.895Z,102189.59
2023-02-19T06:53:48.435Z,102200.03
2023-02-19T06:56:28.040Z,102223.00
2023-02-19T06:58:58.241Z,102204.53
2023-02-19T07:01:28.178Z,102201.75
2023-02-19T07:03:56.882Z,102208.84
2023-02-19T07:06:27.054Z,102216.66
2023-02-19T07:09:16.852Z,102210.53
2023-02-19T07:11:46.929Z,102222.72
2023-02-19T07:14:17.364Z,102232.41
2023-02-19T07:16:47.697Z,102241.16
2023-02-19T07:19:17.319Z,102251.63
2023-02-19T07:21:45.957Z,102245.38
2023-02-19T07:24:14.413Z,102243.44
2023-02-19T07:26:42.839Z,102243.56
2023-02-19T07:29:13.062Z,102251.38
2023-02-19T07:31:41.581Z,102251.28
2023-02-19T07:34:10.158Z,102261.84
2023-02-19T07:36:38.767Z,102260.75
2023-02-19T07:39:09.958Z,102272.13
2023-02-19T07:41:38.743Z,102273.69
2023-02-19T07:44:07.310Z,102276.16
2023-02-19T07:46:37.400Z,102262.31
2023-02-19T07:49:07.357Z,102270.22
2023-02-19T07:51:35.949Z,102275.63
2023-02-19T07:54:04.442Z,102275.63
2023-02-19T07:56:32.866Z,102277.41
2023-02-19T07:59:01.982Z,102281.91
2023-02-19T08:01:44.307Z,102290.56
2023-02-19T08:04:16.000Z,102284.22
2023-02-19T08:06:44.864Z,102284.47
2023-02-19T08:09:13.637Z,102277.44
2023-02-19T08:12:01.744Z,102280.06
2023-02-19T08:14:30.838Z,102281.72
2023-02-19T08:16:59.736Z,102281.78
2023-02-19T08:19:29.805Z,102265.81
2023-02-19T08:21:58.356Z,102275.44
2023-02-19T08:24:26.887Z,102269.16
2023-02-19T08:26:55.420Z,102278.78
2023-02-19T08:29:24.114Z,102277.91
2023-02-19T08:31:52.443Z,102289.09
2023-02-19T08:34:21.026Z,102276.88
2023-02-19T08:36:50.935Z,102284.69
2023-02-19T08:39:20.996Z,102280.22
2023-02-19T08:41:49.795Z,102277.59
2023-02-19T08:44:18.087Z,102267.03
2023-02-19T08:46:46.674Z,102258.13
2023-02-19T08:49:16.763Z,102261.78
2023-02-19T08:51:45.286Z,102263.41
2023-02-19T08:54:15.104Z,102264.41
2023-02-19T08:56:43.623Z,102260.75
2023-02-19T08:59:12.157Z,102254.97
2023-02-19T09:01:40.873Z,102254.75
2023-02-19T09:04:11.848Z,102256.38
2023-02-19T09:06:40.852Z,102251.28
2023-02-19T09:09:10.414Z,102254.78
2023-02-19T09:11:42.208Z,102267.06
2023-02-19T09:14:11.021Z,102266.19
2023-02-19T09:16:39.484Z,102270.38
2023-02-19T09:19:07.979Z,102263.41
2023-02-19T09:21:36.709Z,102266.00
2023-02-19T09:24:05.609Z,102254.41
2023-02-19T09:26:34.262Z,102267.47
2023-02-19T09:29:04.730Z,102255.22
2023-02-19T09:31:35.365Z,102254.94
2023-02-19T09:34:03.892Z,102260.72
2023-02-19T09:36:33.610Z,102255.28
2023-02-19T09:39:02.330Z,102258.63
2023-02-19T09:41:33.545Z,102247.66
2023-02-19T09:44:05.527Z,102242.13
2023-02-19T09:46:38.501Z,102253.56
2023-02-19T09:49:13.026Z,102255.34
2023-02-19T09:51:45.532Z,102273.66
2023-02-19T09:54:22.483Z,102263.97
2023-02-19T09:56:51.719Z,102279.69
2023-02-19T09:59:26.481Z,102288.34
2023-02-19T10:02:02.719Z,102276.81
2023-02-19T10:04:31.371Z,102279.22
2023-02-19T10:07:03.876Z,102272.09
2023-02-19T10:09:32.293Z,102268.28
2023-02-19T10:12:01.410Z,102270.78
2023-02-19T10:14:37.880Z,102275.91
2023-02-19T10:17:08.541Z,102274.97
2023-02-19T10:19:38.314Z,102282.63
2023-02-19T10:22:06.931Z,102278.78
2023-02-19T10:24:37.581Z,102268.63
2023-02-19T10:27:13.706Z,102274.59
2023-02-19T10:29:45.872Z,102286.88
2023-02-19T10:32:21.662Z,102264.56
2023-02-19T10:34:50.254Z,102273.28
2023-02-19T10:37:20.580Z,102273.13
2023-02-19T10:39:51.638Z,102268.66
2023-02-19T10:42:22.609Z,102261.97
2023-02-19T10:44:58.913Z,102260.22
2023-02-19T10:47:30.259Z,102259.88
2023-02-19T10:50:03.286Z,102265.91
2023-02-19T10:52:36.920Z,102267.44
2023-02-19T10:55:26.955Z,102263.59
2023-02-19T10:57:55.636Z,102253.63
2023-02-19T11:00:30.008Z,102261.59
2023-02-19T11:03:22.568Z,102260.63
2023-02-19T11:06:02.679Z,102268.19
2023-02-19T11:08:32.212Z,102273.00
2023-02-19T11:11:01.219Z,102276.34
2023-02-19T11:13:33.220Z,102270.72
2023-02-19T11:16:03.403Z,102263.78
2023-02-19T11:18:36.295Z,102246.31
2023-02-19T11:21:08.197Z,102243.88
2023-02-19T11:23:39.554Z,102252.94
2023-02-19T11:26:18.486Z,102260.22
2023-02-19T11:28:47.922Z,102240.69
2023-02-19T11:31:26.541Z,102245.13
2023-02-19T11:34:00.139Z,102238.63
2023-02-19T11:36:34.843Z,102219.53
2023-02-19T11:39:21.876Z,102248.31
2023-02-19T11:42:13.854Z,102243.19
2023-02-19T11:44:55.388Z,102244.25
2023-02-19T11:47:47.070Z,102228.81
2023-02-19T11:50:24.188Z,102225.47
2023-02-19T11:53:04.830Z,102215.19
2023-02-19T11:55:51.225Z,102218.31
2023-02-19T11:58:58.024Z,102220.31
2023-02-19T12:01:41.334Z,102203.34
2023-02-19T12:04:33.259Z,102191.47
2023-02-19T12:07:13.150Z,102182.47
2023-02-19T12:10:00.787Z,102179.28
2023-02-19T12:12:45.616Z,102181.72
2023-02-19T12:15:33.699Z,102189.88
2023-02-19T12:18:37.156Z,102176.72
2023-02-19T12:21:22.207Z,102174.38
2023-02-19T12:24:09.522Z,102158.19
2023-02-19T12:26:47.297Z,102148.47
2023-02-19T12:29:32.663Z,102130.81
2023-02-19T12:32:23.020Z,102107.00
2023-02-19T12:35:24.359Z,102116.94
2023-02-19T12:38:05.288Z,102109.81
2023-02-19T12:40:45.887Z,102083.72
2023-02-19T12:43:19.294Z,102081.44
2023-02-19T12:45:53.845Z,102064.34
2023-02-19T12:48:30.244Z,102070.66
2023-02-19T12:51:03.055Z,102057.53
2023-02-19T12:53:42.192Z,102054.97
2023-02-19T12:56:18.738Z,102029.75
2023-02-19T12:58:50.964Z,102029.78
2023-02-19T13:01:25.590Z,102022.44
2023-02-19T13:04:02.577Z,102016.38
2023-02-19T13:06:38.212Z,102010.84
2023-02-19T13:09:15.243Z,102002.84
2023-02-19T13:11:51.082Z,102020.50
2023-02-19T13:14:27.729Z,102002.94
2023-02-19T13:17:02.303Z,102003.25
2023-02-19T13:19:32.589Z,101995.75
2023-02-19T13:22:27.886Z,101985.28
2023-02-19T13:24:59.322Z,102009.03
2023-02-19T13:27:49.431Z,102016.53
2023-02-19T13:30:34.191Z,101994.59
2023-02-19T13:33:18.535Z,101998.66
2023-02-19T13:36:12.705Z,101987.75
2023-02-19T13:38:44.681Z,101993.13
2023-02-19T13:41:23.434Z,101970.34
2023-02-19T13:44:05.080Z,101980.88
2023-02-19T13:46:40.403Z,101976.25
2023-02-19T13:49:42.895Z,101987.56
2023-02-19T13:52:37.418Z,101986.81
2023-02-19T13:55:47.274Z,102002.13
2023-02-19T13:59:02.735Z,101984.94
2023-02-19T14:02:13.881Z,101991.75
2023-02-19T14:04:50.358Z,101992.28
2023-02-19T14:07:45.548Z,101990.06
2023-02-19T14:10:35.824Z,101986.03
2023-02-19T14:13:08.725Z,101991.63
2023-02-19T14:15:45.036Z,101994.69
2023-02-19T14:18:46.405Z,101971.09
2023-02-19T14:21:26.337Z,101979.16
2023-02-19T14:24:00.557Z,101969.59
2023-02-19T14:26:32.524Z,101975.53
2023-02-19T14:29:02.434Z,101970.63
2023-02-19T14:31:32.994Z,101959.63
2023-02-19T14:34:04.619Z,101960.63
2023-02-19T14:36:44.383Z,101949.47
2023-02-19T14:39:18.056Z,101978.44
2023-02-19T14:41:49.960Z,101935.31
2023-02-19T14:44:23.617Z,101911.34
2023-02-19T14:46:58.486Z,101915.53
2023-02-19T14:49:33.137Z,101909.94
2023-02-19T14:52:08.024Z,101899.81
2023-02-19T14:54:43.638Z,101885.69
2023-02-19T14:57:19.112Z,101873.81
2023-02-19T14:59:58.605Z,101887.94
2023-02-19T15:02:28.468Z,101867.19
2023-02-19T15:04:57.721Z,101857.47
2023-02-19T15:07:31.876Z,101836.63
2023-02-19T15:10:05.906Z,101849.78
2023-02-19T15:12:41.312Z,101831.66
2023-02-19T15:15:10.874Z,101830.97
2023-02-19T15:17:42.621Z,101830.31
2023-02-19T15:20:16.898Z,101829.28
2023-02-19T15:22:47.603Z,101824.53
2023-02-19T15:25:19.599Z,101814.16
2023-02-19T15:27:48.679Z,101822.94
2023-02-19T15:30:23.171Z,101820.78
2023-02-19T15:32:57.749Z,101818.38
2023-02-19T15:35:28.069Z,101808.69
2023-02-19T15:37:58.377Z,101814.81
2023-02-19T15:40:32.600Z,101810.16
2023-02-19T15:43:02.658Z,101804.41
2023-02-19T15:45:38.864Z,101806.94
2023-02-19T15:48:11.774Z,101796.31
2023-02-19T15:50:45.172Z,101797.66
2023-02-19T15:53:18.401Z,101794.44
2023-02-19T15:55:53.186Z,101791.19
2023-02-19T15:58:27.869Z,101796.78
2023-02-19T16:00:59.846Z,101782.16
2023-02-19T16:03:30.033Z,101786.28
2023-02-19T16:06:04.358Z,101793.34
2023-02-19T16:08:36.000Z,101791.75
2023-02-19T16:11:08.223Z,101792.72
2023-02-19T16:13:37.299Z,101798.63
2023-02-19T16:16:17.668Z,101779.13
2023-02-19T16:18:48.140Z,101791.97
2023-02-19T16:21:57.506Z,101791.31
2023-02-19T16:24:34.477Z,101779.03
2023-02-19T16:27:04.695Z,101778.38
2023-02-19T16:29:34.823Z,101759.38
2023-02-19T16:32:06.385Z,101753.13
2023-02-19T16:34:41.643Z,101757.88
2023-02-19T16:37:35.931Z,101752.41
2023-02-19T16:40:41.063Z,101753.66
2023-02-19T16:43:39.403Z,101754.78
2023-02-19T16:46:11.380Z,101755.28
2023-02-19T16:48:39.869Z,101755.88
2023-02-19T16:51:09.951Z,101767.19
2023-02-19T16:53:38.747Z,101759.00
2023-02-19T16:56:09.813Z,101762.38
2023-02-19T16:58:40.203Z,101760.69
2023-02-19T17:01:09.073Z,101766.41
2023-02-19T17:03:40.803Z,101774.78
2023-02-19T17:06:09.806Z,101764.09
2023-02-19T17:08:40.157Z,101770.94
2023-02-19T17:11:13.670Z,101762.53
2023-02-19T17:13:46.251Z,101765.38
2023-02-19T17:16:20.012Z,101755.19
2023-02-19T17:18:48.850Z,101761.53
2023-02-19T17:21:19.513Z,101764.28
2023-02-19T17:23:48.375Z,101764.38
2023-02-19T17:26:18.751Z,101770.13
2023-02-19T17:28:48.815Z,101768.22
2023-02-19T17:31:17.838Z,101764.63
2023-02-19T17:33:47.203Z,101763.97
2023-02-19T17:36:19.120Z,101764.72
2023-02-19T17:38:47.823Z,101772.06
2023-02-19T17:41:16.725Z,101767.28
2023-02-19T17:43:44.998Z,101778.03
2023-02-19T17:46:18.225Z,101781.34
2023-02-19T17:48:46.878Z,101775.19
2023-02-19T17:51:15.432Z,101763.34
2023-02-19T17:53:44.108Z,101775.84
2023-02-19T17:56:17.182Z,101781.34
2023-02-19T17:58:45.657Z,101764.59
2023-02-19T18:01:15.027Z,101780.09
2023-02-19T18:03:45.405Z,101773.38
2023-02-19T18:06:14.237Z,101789.16
2023-02-19T18:08:50.145Z,101765.88
2023-02-19T18:11:19.220Z,101775.84
2023-02-19T18:13:48.329Z,101784.81
2023-02-19T18:16:17.434Z,101782.19
2023-02-19T18:18:47.330Z,101788.31
2023-02-19T18:21:16.866Z,101777.00
2023-02-19T18:23:46.296Z,101779.34
2023-02-19T18:26:14.901Z,101785.66
2023-02-19T18:28:43.403Z,101777.72
2023-02-19T18:31:12.304Z,101790.22
2023-02-19T18:33:41.114Z,101769.78
2023-02-19T18:36:13.834Z,101787.47
2023-02-19T18:38:42.388Z,101776.22
2023-02-19T18:41:13.821Z,101769.25
2023-02-19T18:43:42.664Z,101782.56
2023-02-19T18:46:12.230Z,101767.13
2023-02-19T18:48:41.241Z,101776.22
2023-02-19T18:51:13.137Z,101768.94
2023-02-19T18:53:44.188Z,101766.69
2023-02-19T18:56:12.660Z,101769.13
2023-02-19T18:58:41.121Z,101767.44
2023-02-19T19:01:10.019Z,101764.59
2023-02-19T19:03:38.573Z,101762.03
2023-02-19T19:06:07.253Z,101764.78
2023-02-19T19:08:37.323Z,101756.44
2023-02-19T19:11:06.537Z,101765.75
2023-02-19T19:13:35.010Z,101754.88
2023-02-19T19:16:03.558Z,101783.88
2023-02-19T19:18:32.720Z,101766.19
2023-02-19T19:21:03.862Z,101754.97
2023-02-19T19:23:32.591Z,101767.81
2023-02-19T19:26:02.499Z,101773.50
2023-02-19T19:28:32.397Z,101752.03
2023-02-19T19:31:00.952Z,101758.47
2023-02-19T19:33:30.397Z,101761.97
2023-02-19T19:35:59.252Z,101760.81
2023-02-19T19:38:28.041Z,101777.91
2023-02-19T19:40:56.674Z,101757.63
2023-02-19T19:43:30.086Z,101768.22
2023-02-19T19:45:59.543Z,101755.41
2023-02-19T19:48:29.039Z,101760.16
2023-02-19T19:51:04.654Z,101753.06
2023-02-19T19:53:33.496Z,101759.31
2023-02-19T19:56:02.191Z,101763.66
2023-02-19T19:58:33.347Z,101749.38
2023-02-19T20:01:01.977Z,101760.59
2023-02-19T20:03:33.670Z,101758.78
2023-02-19T20:06:02.814Z,101750.84
2023-02-19T20:08:33.004Z,101744.72
2023-02-19T20:11:01.678Z,101750.31
2023-02-19T20:13:34.138Z,101777.31
2023-02-19T20:16:02.773Z,101742.38
2023-02-19T20:18:31.150Z,101740.69
2023-02-19T20:21:00.041Z,101744.47
2023-02-19T20:23:28.924Z,101766.16
2023-02-19T20:25:57.775Z,101750.63
2023-02-19T20:28:26.304Z,101735.06
2023-02-19T20:30:56.205Z,101744.13
2023-02-19T20:33:24.864Z,101741.50
2023-02-19T20:35:53.216Z,101751.78
2023-02-19T20:38:21.686Z,101743.41
2023-02-19T20:40:50.252Z,101771.00
2023-02-19T20:43:19.030Z,101764.56
2023-02-19T20:45:48.868Z,101736.00
2023-02-19T20:48:19.487Z,101757.56
2023-02-19T20:50:48.546Z,101752.38
2023-02-19T20:53:17.327Z,101760.50
2023-02-19T20:55:46.132Z,101752.56
2023-02-19T20:58:14.687Z,101755.97
2023-02-19T21:00:43.261Z,101754.28
2023-02-19T21:03:11.964Z,101749.16
2023-02-19T21:05:43.235Z,101754.09
2023-02-19T21:08:12.149Z,101756.34
2023-02-19T21:10:40.926Z,101779.31
2023-02-19T21:13:09.393Z,101734.34
2023-02-19T21:15:37.809Z,101741.22
2023-02-19T21:18:06.577Z,101764.38
2023-02-19T21:20:35.142Z,101771.19
2023-02-19T21:23:05.099Z,101753.72
2023-02-19T21:25:33.616Z,101764.66
2023-02-19T21:28:01.988Z,101763.25
2023-02-19T21:30:30.263Z,101756.16
2023-02-19T21:32:58.997Z,101760.72
2023-02-19T21:35:28.333Z,101747.13
2023-02-19T21:37:56.982Z,101738.50
2023-02-19T21:40:29.350Z,101766.75
2023-02-19T21:42:57.808Z,101767.88
2023-02-19T21:45:26.709Z,101762.31
2023-02-19T21:47:55.369Z,101748.41
2023-02-19T21:50:24.320Z,101736.25
2023-02-19T21:52:52.740Z,101752.28
2023-02-19T21:55:21.381Z,101755.31
2023-02-19T21:57:51.358Z,101763.56
2023-02-19T22:00:20.524Z,101763.41
2023-02-19T22:02:48.959Z,101763.00
2023-02-19T22:05:17.587Z,101768.78
2023-02-19T22:07:46.193Z,101783.13
2023-02-19T22:10:17.139Z,101767.44
2023-02-19T22:12:45.841Z,101762.16
2023-02-19T22:15:15.966Z,101756.19
2023-02-19T22:17:44.290Z,101762.88
2023-02-19T22:20:13.127Z,101775.44
2023-02-19T22:22:42.106Z,101764.09
2023-02-19T22:25:22.838Z,101760.97
2023-02-19T22:27:51.599Z,101768.88
2023-02-19T22:30:22.139Z,101754.47
2023-02-19T22:32:50.553Z,101767.94
2023-02-19T22:35:19.237Z,101759.50
2023-02-19T22:37:47.813Z,101751.41
2023-02-19T22:40:16.435Z,101752.38
2023-02-19T22:42:44.814Z,101756.19
2023-02-19T22:45:14.484Z,101762.41
2023-02-19T22:47:47.098Z,101744.78
2023-02-19T22:50:20.063Z,101751.19
2023-02-19T22:52:48.590Z,101740.41
2023-02-19T22:55:18.143Z,101746.56
2023-02-19T22:57:46.468Z,101730.47
2023-02-19T23:00:21.216Z,101727.91
2023-02-19T23:02:51.370Z,101733.28
2023-02-19T23:05:19.717Z,101737.03
2023-02-19T23:07:48.046Z,101737.59
2023-02-19T23:10:16.348Z,101722.72
2023-02-19T23:12:45.076Z,101737.13
2023-02-19T23:15:13.621Z,101722.88
2023-02-19T23:17:41.994Z,101726.00
2023-02-19T23:20:14.329Z,101718.91
2023-02-19T23:22:43.958Z,101724.38
2023-02-19T23:25:12.363Z,101717.19
2023-02-19T23:27:40.663Z,101721.72
2023-02-19T23:30:10.027Z,101711.75
2023-02-19T23:32:38.474Z,101709.53
2023-02-19T23:35:07.428Z,101724.53
2023-02-19T23:37:37.671Z,101709.53
2023-02-19T23:40:06.846Z,101718.50
2023-02-19T23:42:35.903Z,101719.66
2023-02-19T23:45:05.001Z,101711.25
2023-02-19T23:47:33.439Z,101712.19
2023-02-19T23:50:01.814Z,101703.16
2023-02-19T23:52:30.218Z,101711.34
2023-02-19T23:55:00.182Z,101709.38
2023-02-19T23:57:28.574Z,101708.78
2023-02-19T23:59:57.036Z,101697.22
